createdAt,value
2023-03-29T00:01:53.128Z,3.85
2023-03-29T00:03:54.741Z,3.91
2023-03-29T00:06:02.908Z,4.07
2023-03-29T00:08:04.732Z,4.19
2023-03-29T00:10:07.524Z,4.27
2023-03-29T00:12:11.009Z,4.04
2023-03-29T00:14:13.273Z,3.90
2023-03-29T00:16:15.186Z,3.69
2023-03-29T00:18:16.822Z,3.58
2023-03-29T00:20:18.501Z,3.74
2023-03-29T00:22:20.244Z,3.88
2023-03-29T00:24:23.732Z,4.00
2023-03-29T00:26:25.475Z,4.20
2023-03-29T00:28:27.106Z,4.29
2023-03-29T00:30:28.752Z,4.29
2023-03-29T00:32:30.705Z,4.44
2023-03-29T00:34:32.324Z,4.45
2023-03-29T00:36:34.165Z,4.35
2023-03-29T00:38:37.119Z,4.38
2023-03-29T00:40:44.800Z,4.42
2023-03-29T00:42:46.724Z,4.21
2023-03-29T00:45:01.814Z,4.31
2023-03-29T00:47:03.590Z,4.32
2023-03-29T00:49:12.755Z,4.36
2023-03-29T00:51:18.824Z,4.47
2023-03-29T00:53:27.440Z,4.51
2023-03-29T00:55:33.685Z,4.44
2023-03-29T00:57:35.702Z,4.42
2023-03-29T00:59:41.823Z,4.43
2023-03-29T01:01:54.400Z,4.49
2023-03-29T01:04:08.372Z,4.42
2023-03-29T01:06:11.436Z,3.84
2023-03-29T01:08:21.579Z,3.66
2023-03-29T01:10:43.819Z,3.42
2023-03-29T01:12:53.098Z,3.20
2023-03-29T01:15:01.913Z,3.28
2023-03-29T01:17:04.481Z,3.53
2023-03-29T01:19:12.148Z,3.52
2023-03-29T01:21:29.276Z,3.36
2023-03-29T01:23:58.322Z,3.30
2023-03-29T01:26:14.052Z,3.45
2023-03-29T01:28:21.235Z,3.55
2023-03-29T01:30:30.432Z,3.51
2023-03-29T01:32:39.263Z,3.45
2023-03-29T01:34:44.852Z,3.64
2023-03-29T01:37:00.262Z,3.62
2023-03-29T01:39:06.882Z,3.80
2023-03-29T01:41:09.948Z,3.88
2023-03-29T01:43:17.495Z,3.67
2023-03-29T01:45:21.903Z,3.83
2023-03-29T01:47:38.820Z,3.97
2023-03-29T01:49:52.138Z,4.13
2023-03-29T01:51:59.723Z,4.21
2023-03-29T01:54:10.220Z,4.28
2023-03-29T01:56:17.250Z,4.29
2023-03-29T01:58:22.316Z,4.34
2023-03-29T02:00:27.478Z,4.40
2023-03-29T02:02:31.937Z,4.46
2023-03-29T02:04:41.424Z,4.46
2023-03-29T02:06:43.503Z,4.56
2023-03-29T02:08:46.621Z,4.52
2023-03-29T02:10:49.557Z,4.46
2023-03-29T02:12:54.042Z,4.45
2023-03-29T02:14:57.930Z,4.30
2023-03-29T02:17:22.529Z,4.29
2023-03-29T02:19:25.217Z,4.36
2023-03-29T02:21:33.913Z,4.27
2023-03-29T02:23:45.457Z,4.31
2023-03-29T02:25:50.811Z,4.13
2023-03-29T02:27:53.542Z,3.97
2023-03-29T02:29:55.363Z,4.08
2023-03-29T02:32:12.713Z,3.95
2023-03-29T02:34:26.577Z,3.64
2023-03-29T02:36:50.332Z,3.62
2023-03-29T02:38:53.166Z,3.75
2023-03-29T02:40:56.192Z,3.73
2023-03-29T02:43:01.948Z,3.68
2023-03-29T02:45:10.357Z,3.86
2023-03-29T02:47:26.737Z,3.69
2023-03-29T02:49:28.855Z,3.85
2023-03-29T02:51:37.328Z,4.00
2023-03-29T02:53:43.623Z,3.88
2023-03-29T02:55:47.056Z,3.88
2023-03-29T02:57:48.750Z,3.96
2023-03-29T02:59:50.385Z,4.06
2023-03-29T03:01:55.263Z,3.84
2023-03-29T03:03:57.704Z,3.90
2023-03-29T03:06:01.669Z,3.70
2023-03-29T03:08:07.110Z,3.65
2023-03-29T03:10:10.044Z,3.48
2023-03-29T03:12:12.648Z,3.54
2023-03-29T03:14:14.227Z,3.73
2023-03-29T03:16:15.814Z,3.73
2023-03-29T03:18:17.452Z,3.78
2023-03-29T03:20:22.184Z,3.86
2023-03-29T03:22:24.864Z,3.80
2023-03-29T03:24:28.066Z,3.73
2023-03-29T03:26:32.546Z,3.65
2023-03-29T03:28:34.241Z,3.67
2023-03-29T03:30:39.107Z,3.61
2023-03-29T03:32:54.763Z,3.47
2023-03-29T03:34:56.262Z,3.47
2023-03-29T03:37:03.367Z,3.60
2023-03-29T03:39:14.528Z,3.81
2023-03-29T03:41:20.001Z,3.99
2023-03-29T03:43:22.603Z,4.10
2023-03-29T03:45:27.821Z,3.92
2023-03-29T03:47:43.143Z,3.97
2023-03-29T03:49:57.304Z,3.94
2023-03-29T03:52:00.889Z,4.06
2023-03-29T03:54:02.720Z,4.03
2023-03-29T03:56:10.303Z,4.05
2023-03-29T03:58:37.582Z,3.86
2023-03-29T04:00:41.633Z,3.66
2023-03-29T04:02:57.577Z,3.76
2023-03-29T04:05:03.551Z,3.70
2023-03-29T04:07:15.031Z,3.74
2023-03-29T04:09:33.335Z,3.96
2023-03-29T04:11:56.048Z,4.07
2023-03-29T04:13:57.731Z,4.04
2023-03-29T04:16:03.847Z,4.12
2023-03-29T04:18:07.305Z,4.21
2023-03-29T04:20:18.743Z,4.10
2023-03-29T04:22:20.897Z,4.12
2023-03-29T04:24:23.228Z,4.28
2023-03-29T04:26:45.030Z,4.32
2023-03-29T04:28:54.192Z,4.39
2023-03-29T04:31:05.199Z,4.47
2023-03-29T04:33:21.138Z,4.49
2023-03-29T04:35:28.822Z,4.53
2023-03-29T04:37:31.539Z,4.44
2023-03-29T04:39:34.251Z,4.49
2023-03-29T04:41:39.099Z,4.58
2023-03-29T04:43:50.508Z,4.56
2023-03-29T04:45:57.730Z,4.26
2023-03-29T04:48:15.607Z,4.15
2023-03-29T04:50:19.394Z,4.23
2023-03-29T04:52:23.949Z,4.20
2023-03-29T04:54:26.486Z,4.18
2023-03-29T04:56:52.725Z,4.05
2023-03-29T04:59:08.114Z,4.03
2023-03-29T05:01:10.277Z,4.16
2023-03-29T05:03:18.591Z,4.12
2023-03-29T05:05:28.481Z,4.26
2023-03-29T05:07:35.636Z,4.41
2023-03-29T05:09:37.860Z,4.52
2023-03-29T05:11:39.839Z,4.49
2023-03-29T05:13:42.511Z,4.52
2023-03-29T05:15:44.168Z,4.46
2023-03-29T05:17:45.897Z,4.46
2023-03-29T05:19:47.829Z,4.41
2023-03-29T05:21:51.043Z,4.43
2023-03-29T05:23:56.337Z,4.55
2023-03-29T05:26:23.393Z,4.62
2023-03-29T05:28:27.882Z,4.71
2023-03-29T05:30:29.507Z,4.79
2023-03-29T05:32:49.091Z,4.66
2023-03-29T05:34:54.023Z,4.59
2023-03-29T05:36:56.844Z,4.63
2023-03-29T05:38:59.790Z,4.44
2023-03-29T05:41:02.056Z,4.34
2023-03-29T05:43:22.345Z,4.31
2023-03-29T05:45:24.704Z,4.05
2023-03-29T05:47:26.825Z,4.25
2023-03-29T05:49:28.820Z,4.46
2023-03-29T05:51:42.617Z,4.24
2023-03-29T05:53:45.196Z,4.24
2023-03-29T05:55:47.234Z,4.39
2023-03-29T05:57:51.492Z,4.28
2023-03-29T05:59:57.082Z,4.22
2023-03-29T06:02:00.483Z,4.43
2023-03-29T06:04:03.492Z,4.56
2023-03-29T06:06:16.386Z,4.73
2023-03-29T06:08:18.414Z,4.50
2023-03-29T06:10:37.594Z,4.72
2023-03-29T06:13:07.502Z,4.74
2023-03-29T06:15:13.185Z,4.93
2023-03-29T06:17:47.713Z,5.10
2023-03-29T06:19:50.408Z,5.21
2023-03-29T06:21:54.184Z,5.24
2023-03-29T06:23:59.980Z,5.39
2023-03-29T06:26:05.603Z,5.41
2023-03-29T06:28:07.601Z,5.51
2023-03-29T06:30:10.594Z,5.59
2023-03-29T06:32:12.638Z,5.68
2023-03-29T06:34:22.352Z,5.81
2023-03-29T06:36:34.246Z,5.92
2023-03-29T06:38:36.380Z,5.96
2023-03-29T06:41:05.084Z,6.14
2023-03-29T06:43:26.179Z,6.12
2023-03-29T06:45:36.276Z,6.22
2023-03-29T06:47:42.949Z,5.75
2023-03-29T06:49:44.797Z,5.93
2023-03-29T06:52:02.026Z,6.12
2023-03-29T06:54:04.131Z,6.18
2023-03-29T06:56:09.308Z,6.04
2023-03-29T06:58:22.732Z,6.05
2023-03-29T07:00:30.948Z,5.96
2023-03-29T07:02:41.085Z,6.03
2023-03-29T07:04:46.196Z,6.10
2023-03-29T07:07:01.540Z,6.16
2023-03-29T07:09:06.650Z,6.19
2023-03-29T07:11:37.214Z,6.48
2023-03-29T07:13:57.666Z,6.68
2023-03-29T07:16:00.709Z,6.81
2023-03-29T07:18:28.342Z,6.87
2023-03-29T07:20:30.566Z,6.86
2023-03-29T07:22:43.417Z,6.82
2023-03-29T07:24:45.030Z,7.01
2023-03-29T07:26:59.988Z,7.02
2023-03-29T07:29:04.656Z,7.23
2023-03-29T07:31:10.768Z,7.19
2023-03-29T07:33:19.069Z,7.38
2023-03-29T07:35:30.902Z,7.48
2023-03-29T07:37:34.256Z,7.53
2023-03-29T07:39:37.211Z,7.64
2023-03-29T07:42:01.666Z,7.86
2023-03-29T07:44:09.085Z,8.06
2023-03-29T07:46:11.135Z,8.13
2023-03-29T07:48:14.427Z,8.26
2023-03-29T07:50:24.152Z,8.11
2023-03-29T07:52:29.993Z,8.43
2023-03-29T07:54:32.647Z,8.52
2023-03-29T07:56:52.095Z,8.55
2023-03-29T07:59:14.115Z,8.60
2023-03-29T08:01:19.820Z,8.51
2023-03-29T08:03:40.288Z,8.66
2023-03-29T08:05:43.261Z,8.53
2023-03-29T08:07:47.065Z,8.62
2023-03-29T08:09:59.990Z,8.56
2023-03-29T08:12:30.310Z,8.56
2023-03-29T08:14:33.849Z,8.60
2023-03-29T08:16:47.091Z,8.43
2023-03-29T08:18:50.992Z,8.45
2023-03-29T08:20:54.384Z,8.69
2023-03-29T08:22:57.112Z,8.91
2023-03-29T08:25:07.347Z,8.98
2023-03-29T08:27:14.104Z,9.07
2023-03-29T08:29:16.030Z,8.88
2023-03-29T08:31:18.503Z,9.18
2023-03-29T08:33:20.640Z,9.33
2023-03-29T08:35:28.971Z,9.24
2023-03-29T08:37:41.442Z,9.30
2023-03-29T08:39:45.864Z,9.46
2023-03-29T08:43:01.903Z,9.64
2023-03-29T08:45:18.946Z,9.71
2023-03-29T08:47:34.485Z,9.77
2023-03-29T08:49:40.293Z,9.52
2023-03-29T08:51:52.976Z,9.52
2023-03-29T08:54:20.544Z,9.60
2023-03-29T08:56:46.140Z,9.54
2023-03-29T08:59:02.332Z,9.50
2023-03-29T09:01:11.285Z,9.59
2023-03-29T09:03:28.492Z,9.75
2023-03-29T09:05:38.117Z,10.37
2023-03-29T09:07:54.566Z,10.76
2023-03-29T09:09:56.995Z,10.86
2023-03-29T09:12:42.680Z,10.61
2023-03-29T09:15:14.131Z,10.75
2023-03-29T09:17:32.119Z,10.74
2023-03-29T09:19:46.177Z,10.88
2023-03-29T09:22:02.921Z,10.87
2023-03-29T09:24:15.576Z,10.75
2023-03-29T09:26:37.100Z,10.40
2023-03-29T09:29:13.057Z,10.52
2023-03-29T09:31:24.012Z,10.58
2023-03-29T09:33:42.598Z,10.66
2023-03-29T09:36:07.819Z,10.61
2023-03-29T09:38:13.970Z,10.76
2023-03-29T09:40:20.822Z,10.99
2023-03-29T09:42:32.180Z,11.35
2023-03-29T09:44:43.920Z,11.41
2023-03-29T09:46:57.126Z,11.32
2023-03-29T09:49:06.523Z,11.23
2023-03-29T09:51:09.819Z,11.23
2023-03-29T09:53:15.778Z,11.27
2023-03-29T09:55:28.370Z,11.21
2023-03-29T09:57:58.320Z,11.24
2023-03-29T10:00:05.646Z,11.56
2023-03-29T10:02:15.757Z,11.59
2023-03-29T10:04:17.809Z,11.47
2023-03-29T10:06:26.869Z,11.18
2023-03-29T10:08:34.802Z,11.14
2023-03-29T10:10:38.483Z,11.02
2023-03-29T10:12:41.577Z,10.91
2023-03-29T10:14:46.475Z,10.86
2023-03-29T10:16:55.741Z,10.80
2023-03-29T10:18:57.611Z,10.41
2023-03-29T10:21:01.225Z,10.43
2023-03-29T10:23:06.918Z,10.43
2023-03-29T10:25:13.601Z,10.58
2023-03-29T10:27:21.416Z,10.67
2023-03-29T10:29:24.625Z,10.93
2023-03-29T10:31:31.072Z,11.27
2023-03-29T10:33:35.562Z,11.67
2023-03-29T10:35:44.038Z,11.77
2023-03-29T10:37:49.387Z,11.59
2023-03-29T10:39:51.868Z,11.90
2023-03-29T10:41:53.553Z,12.31
2023-03-29T10:43:55.500Z,12.50
2023-03-29T10:46:08.132Z,12.23
2023-03-29T10:48:15.275Z,12.06
2023-03-29T10:50:17.145Z,12.12
2023-03-29T10:52:18.707Z,12.31
2023-03-29T10:54:24.079Z,12.46
2023-03-29T10:56:46.969Z,12.47
2023-03-29T10:59:27.357Z,12.33
2023-03-29T11:01:31.621Z,12.76
2023-03-29T11:03:45.016Z,12.98
2023-03-29T11:06:04.526Z,12.94
2023-03-29T11:08:26.464Z,12.90
2023-03-29T11:10:50.367Z,12.91
2023-03-29T11:13:23.388Z,13.64
2023-03-29T11:15:55.416Z,13.98
2023-03-29T11:18:34.322Z,13.82
2023-03-29T11:20:48.385Z,13.65
2023-03-29T11:22:55.883Z,13.93
2023-03-29T11:25:09.987Z,14.04
2023-03-29T11:27:35.775Z,14.16
2023-03-29T11:29:59.113Z,14.23
2023-03-29T11:32:23.313Z,13.90
2023-03-29T11:34:49.482Z,13.98
2023-03-29T11:37:03.817Z,13.99
2023-03-29T11:39:26.568Z,14.26
2023-03-29T11:41:32.020Z,14.01
2023-03-29T11:43:33.536Z,14.35
2023-03-29T11:45:44.960Z,13.97
2023-03-29T11:47:51.277Z,14.03
2023-03-29T11:50:03.875Z,13.81
2023-03-29T11:52:24.406Z,14.11
2023-03-29T11:54:42.336Z,14.22
2023-03-29T11:56:47.340Z,13.94
2023-03-29T11:58:57.616Z,13.43
2023-03-29T12:01:07.290Z,14.03
2023-03-29T12:03:38.736Z,14.84
2023-03-29T12:05:55.556Z,13.82
2023-03-29T12:08:03.702Z,14.09
2023-03-29T12:10:08.339Z,14.39
2023-03-29T12:12:17.710Z,14.50
2023-03-29T12:14:28.326Z,14.30
2023-03-29T12:16:51.810Z,14.04
2023-03-29T12:19:01.311Z,13.98
2023-03-29T12:21:08.926Z,14.20
2023-03-29T12:23:15.688Z,14.77
2023-03-29T12:25:23.781Z,14.83
2023-03-29T12:27:31.374Z,14.92
2023-03-29T12:30:02.404Z,14.90
2023-03-29T12:32:19.464Z,14.78
2023-03-29T12:34:43.112Z,14.71
2023-03-29T12:37:14.854Z,14.05
2023-03-29T12:39:37.190Z,14.48
2023-03-29T12:42:15.020Z,13.81
2023-03-29T12:44:35.288Z,14.03
2023-03-29T12:46:58.563Z,14.65
2023-03-29T12:49:07.785Z,14.75
2023-03-29T12:51:16.890Z,14.73
2023-03-29T12:53:23.365Z,14.40
2023-03-29T12:55:46.833Z,14.34
2023-03-29T12:58:03.691Z,14.02
2023-03-29T13:00:32.732Z,14.37
2023-03-29T13:02:37.208Z,14.24
2023-03-29T13:04:57.249Z,13.98
2023-03-29T13:07:04.857Z,14.27
2023-03-29T13:09:23.794Z,14.24
2023-03-29T13:11:47.841Z,13.84
2023-03-29T13:13:50.584Z,13.82
2023-03-29T13:15:52.253Z,13.78
2023-03-29T13:18:22.195Z,13.77
2023-03-29T13:20:43.572Z,13.47
2023-03-29T13:23:07.148Z,13.73
2023-03-29T13:25:29.957Z,13.37
2023-03-29T13:27:56.128Z,13.43
2023-03-29T13:30:32.265Z,13.63
2023-03-29T13:32:58.213Z,13.85
2023-03-29T13:35:14.623Z,13.52
2023-03-29T13:37:40.347Z,13.50
2023-03-29T13:39:50.459Z,13.55
2023-03-29T13:41:54.255Z,13.61
2023-03-29T13:43:56.673Z,13.36
2023-03-29T13:45:58.331Z,13.15
2023-03-29T13:48:25.086Z,13.29
2023-03-29T13:50:36.913Z,13.51
2023-03-29T13:52:51.380Z,13.62
2023-03-29T13:54:56.057Z,13.51
2023-03-29T13:57:15.720Z,13.57
2023-03-29T13:59:22.041Z,13.59
2023-03-29T14:01:29.150Z,13.71
2023-03-29T14:03:40.403Z,13.45
2023-03-29T14:05:52.110Z,13.68
2023-03-29T14:07:55.378Z,13.90
2023-03-29T14:09:58.954Z,14.28
2023-03-29T14:12:01.299Z,14.21
2023-03-29T14:14:05.136Z,13.97
2023-03-29T14:16:11.902Z,13.94
2023-03-29T14:18:17.841Z,14.16
2023-03-29T14:20:19.594Z,14.30
2023-03-29T14:22:21.762Z,14.31
2023-03-29T14:24:27.455Z,14.17
2023-03-29T14:26:35.731Z,13.98
2023-03-29T14:28:46.323Z,14.11
2023-03-29T14:30:49.693Z,14.40
2023-03-29T14:32:52.325Z,14.28
2023-03-29T14:34:54.146Z,13.83
2023-03-29T14:36:56.511Z,14.09
2023-03-29T14:39:02.923Z,13.78
2023-03-29T14:41:05.025Z,13.50
2023-03-29T14:43:08.238Z,13.81
2023-03-29T14:45:12.521Z,13.84
2023-03-29T14:47:27.292Z,14.05
2023-03-29T14:49:30.065Z,13.65
2023-03-29T14:51:31.959Z,13.46
2023-03-29T14:53:38.077Z,13.86
2023-03-29T14:55:40.515Z,14.20
2023-03-29T14:57:42.768Z,14.52
2023-03-29T14:59:54.166Z,14.83
2023-03-29T15:01:56.398Z,15.06
2023-03-29T15:04:10.192Z,14.57
2023-03-29T15:06:13.946Z,14.87
2023-03-29T15:08:23.375Z,14.55
2023-03-29T15:10:25.023Z,14.69
2023-03-29T15:12:30.866Z,14.24
2023-03-29T15:14:37.057Z,13.96
2023-03-29T15:16:41.814Z,14.28
2023-03-29T15:18:45.372Z,14.43
2023-03-29T15:20:48.338Z,14.22
2023-03-29T15:23:00.823Z,14.34
2023-03-29T15:25:03.261Z,14.44
2023-03-29T15:27:14.819Z,14.46
2023-03-29T15:29:23.215Z,14.43
2023-03-29T15:31:28.697Z,14.45
2023-03-29T15:33:33.678Z,14.50
2023-03-29T15:35:35.395Z,14.06
2023-03-29T15:37:37.916Z,14.33
2023-03-29T15:39:44.089Z,14.34
2023-03-29T15:41:48.546Z,14.42
2023-03-29T15:43:50.197Z,14.57
2023-03-29T15:45:52.322Z,14.55
2023-03-29T15:47:53.989Z,14.23
2023-03-29T15:49:55.884Z,14.38
2023-03-29T15:51:57.456Z,14.54
2023-03-29T15:53:59.272Z,14.53
2023-03-29T15:56:07.144Z,14.55
2023-03-29T15:58:14.854Z,14.58
2023-03-29T16:00:18.272Z,14.31
2023-03-29T16:02:23.666Z,13.97
2023-03-29T16:04:26.055Z,13.57
2023-03-29T16:06:27.598Z,13.83
2023-03-29T16:08:29.681Z,13.64
2023-03-29T16:10:31.211Z,13.61
2023-03-29T16:12:35.320Z,13.77
2023-03-29T16:14:48.803Z,13.81
2023-03-29T16:16:51.636Z,14.01
2023-03-29T16:18:53.182Z,13.88
2023-03-29T16:20:54.776Z,13.85
2023-03-29T16:22:57.359Z,14.06
2023-03-29T16:24:59.332Z,14.10
2023-03-29T16:27:01.734Z,14.10
2023-03-29T16:29:03.350Z,13.83
2023-03-29T16:31:06.113Z,13.79
2023-03-29T16:33:08.755Z,13.95
2023-03-29T16:35:32.088Z,14.10
2023-03-29T16:37:33.713Z,13.91
2023-03-29T16:39:35.308Z,13.97
2023-03-29T16:41:37.158Z,13.99
2023-03-29T16:43:39.194Z,14.08
2023-03-29T16:45:41.114Z,14.04
2023-03-29T16:47:45.842Z,14.15
2023-03-29T16:49:48.564Z,14.09
2023-03-29T16:51:50.177Z,14.06
2023-03-29T16:53:52.233Z,14.12
2023-03-29T16:55:54.260Z,14.03
2023-03-29T16:57:56.283Z,14.10
2023-03-29T16:59:57.995Z,14.16
2023-03-29T17:01:59.614Z,13.64
2023-03-29T17:04:01.223Z,13.61
2023-03-29T17:06:07.237Z,13.77
2023-03-29T17:08:10.067Z,13.82
2023-03-29T17:10:12.615Z,13.65
2023-03-29T17:12:14.458Z,13.51
2023-03-29T17:14:16.908Z,13.30
2023-03-29T17:16:18.540Z,13.15
2023-03-29T17:18:22.241Z,13.26
2023-03-29T17:20:23.891Z,13.29
2023-03-29T17:22:25.980Z,13.17
2023-03-29T17:24:27.540Z,13.07
2023-03-29T17:26:29.263Z,12.89
2023-03-29T17:28:30.968Z,12.76
2023-03-29T17:30:34.260Z,12.88
2023-03-29T17:32:36.518Z,12.90
2023-03-29T17:34:38.877Z,13.06
2023-03-29T17:36:41.225Z,13.14
2023-03-29T17:38:43.075Z,13.07
2023-03-29T17:40:52.088Z,13.05
2023-03-29T17:42:54.147Z,13.21
2023-03-29T17:44:55.962Z,13.12
2023-03-29T17:46:57.538Z,13.12
2023-03-29T17:49:00.209Z,13.11
2023-03-29T17:51:01.882Z,13.16
2023-03-29T17:53:03.885Z,13.20
2023-03-29T17:55:13.265Z,13.18
2023-03-29T17:57:14.910Z,13.14
2023-03-29T17:59:17.391Z,13.12
2023-03-29T18:01:19.536Z,13.10
2023-03-29T18:03:21.513Z,13.15
2023-03-29T18:05:23.401Z,13.08
2023-03-29T18:07:25.020Z,13.01
2023-03-29T18:09:30.246Z,12.98
2023-03-29T18:11:32.559Z,13.02
2023-03-29T18:13:34.572Z,12.70
2023-03-29T18:15:36.591Z,12.67
2023-03-29T18:17:39.067Z,12.69
2023-03-29T18:19:41.091Z,12.78
2023-03-29T18:21:42.761Z,12.83
2023-03-29T18:23:46.973Z,12.80
2023-03-29T18:25:48.506Z,12.90
2023-03-29T18:27:50.274Z,12.93
2023-03-29T18:29:51.975Z,12.92
2023-03-29T18:31:53.727Z,12.90
2023-03-29T18:33:55.280Z,12.88
2023-03-29T18:35:56.819Z,12.79
2023-03-29T18:37:58.966Z,12.79
2023-03-29T18:40:00.642Z,12.76
2023-03-29T18:42:03.052Z,12.75
2023-03-29T18:44:05.261Z,12.57
2023-03-29T18:46:09.844Z,12.55
2023-03-29T18:48:11.609Z,12.50
2023-03-29T18:50:13.238Z,12.44
2023-03-29T18:52:14.874Z,12.51
2023-03-29T18:54:17.012Z,12.48
2023-03-29T18:56:18.557Z,12.47
2023-03-29T18:58:23.822Z,12.47
2023-03-29T19:00:25.396Z,12.45
2023-03-29T19:02:27.037Z,12.40
2023-03-29T19:04:28.896Z,12.22
2023-03-29T19:06:31.710Z,12.22
2023-03-29T19:08:36.767Z,12.11
2023-03-29T19:10:39.792Z,12.05
2023-03-29T19:12:41.348Z,12.06
2023-03-29T19:14:42.912Z,12.14
2023-03-29T19:16:44.474Z,12.12
2023-03-29T19:18:46.417Z,11.99
2023-03-29T19:20:50.850Z,11.93
2023-03-29T19:22:53.428Z,11.80
2023-03-29T19:24:55.218Z,11.70
2023-03-29T19:26:57.283Z,11.67
2023-03-29T19:29:00.202Z,11.66
2023-03-29T19:31:03.024Z,11.60
2023-03-29T19:33:04.555Z,11.73
2023-03-29T19:35:09.503Z,11.91
2023-03-29T19:37:11.639Z,11.91
2023-03-29T19:39:13.174Z,11.99
2023-03-29T19:41:14.763Z,11.90
2023-03-29T19:43:16.919Z,11.62
2023-03-29T19:45:18.653Z,11.59
2023-03-29T19:47:20.717Z,11.72
2023-03-29T19:49:22.230Z,11.79
2023-03-29T19:51:26.927Z,11.81
2023-03-29T19:53:29.617Z,11.90
2023-03-29T19:55:31.218Z,11.89
2023-03-29T19:57:33.412Z,11.89
2023-03-29T19:59:35.557Z,11.89
2023-03-29T20:01:39.420Z,11.94
2023-03-29T20:03:43.541Z,11.96
2023-03-29T20:05:49.037Z,11.93
2023-03-29T20:07:50.576Z,11.92
2023-03-29T20:09:52.184Z,11.90
2023-03-29T20:11:53.819Z,11.98
2023-03-29T20:13:55.344Z,12.09
2023-03-29T20:15:56.996Z,12.05
2023-03-29T20:18:00.219Z,12.03
2023-03-29T20:20:04.654Z,12.01
2023-03-29T20:22:07.905Z,11.96
2023-03-29T20:24:10.716Z,11.89
2023-03-29T20:26:12.347Z,12.00
2023-03-29T20:28:14.531Z,11.90
2023-03-29T20:30:16.363Z,11.90
2023-03-29T20:32:18.067Z,11.91
2023-03-29T20:34:19.610Z,11.93
2023-03-29T20:36:22.951Z,11.87
2023-03-29T20:38:25.042Z,11.74
2023-03-29T20:40:28.651Z,11.68
2023-03-29T20:42:34.156Z,11.80
2023-03-29T20:44:37.598Z,11.65
2023-03-29T20:46:45.988Z,11.64
2023-03-29T20:48:53.247Z,11.66
2023-03-29T20:50:55.329Z,11.59
2023-03-29T20:52:57.086Z,11.63
2023-03-29T20:54:59.112Z,11.58
2023-03-29T20:57:01.239Z,11.61
2023-03-29T20:59:04.204Z,11.55
2023-03-29T21:01:06.092Z,11.48
2023-03-29T21:03:08.316Z,11.42
2023-03-29T21:05:11.193Z,11.44
2023-03-29T21:07:14.193Z,11.47
2023-03-29T21:09:17.662Z,11.40
2023-03-29T21:11:21.037Z,11.43
2023-03-29T21:13:23.429Z,11.44
2023-03-29T21:15:24.933Z,11.39
2023-03-29T21:17:26.937Z,11.35
2023-03-29T21:19:29.017Z,11.34
2023-03-29T21:21:30.609Z,11.39
2023-03-29T21:23:32.181Z,11.40
2023-03-29T21:25:33.815Z,11.40
2023-03-29T21:27:36.216Z,11.39
2023-03-29T21:29:38.605Z,11.28
2023-03-29T21:31:40.647Z,11.36
2023-03-29T21:33:45.334Z,11.28
2023-03-29T21:35:48.122Z,11.29
2023-03-29T21:37:49.641Z,11.36
2023-03-29T21:39:51.196Z,11.37
2023-03-29T21:41:53.195Z,11.32
2023-03-29T21:43:54.770Z,11.32
2023-03-29T21:45:57.481Z,11.26
2023-03-29T21:48:00.447Z,11.22
2023-03-29T21:50:02.103Z,11.26
2023-03-29T21:52:03.838Z,11.25
2023-03-29T21:54:05.763Z,11.29
2023-03-29T21:56:08.313Z,11.25
2023-03-29T21:58:10.197Z,11.26
2023-03-29T22:00:15.484Z,11.16
2023-03-29T22:02:17.413Z,11.11
2023-03-29T22:04:33.072Z,11.06
2023-03-29T22:06:37.657Z,11.12
2023-03-29T22:08:39.233Z,11.04
2023-03-29T22:10:43.779Z,10.97
2023-03-29T22:12:45.312Z,10.88
2023-03-29T22:14:47.170Z,10.93
2023-03-29T22:16:51.626Z,10.93
2023-03-29T22:18:54.126Z,10.92
2023-03-29T22:20:58.693Z,10.89
2023-03-29T22:23:03.235Z,10.92
2023-03-29T22:25:05.738Z,10.91
2023-03-29T22:27:07.317Z,10.93
2023-03-29T22:29:08.795Z,10.95
2023-03-29T22:31:13.105Z,10.92
2023-03-29T22:33:17.515Z,10.95
2023-03-29T22:35:19.046Z,10.91
2023-03-29T22:37:22.489Z,10.83
2023-03-29T22:39:24.024Z,10.85
2023-03-29T22:41:27.501Z,10.77
2023-03-29T22:43:29.115Z,10.74
2023-03-29T22:45:32.776Z,10.72
2023-03-29T22:47:35.271Z,10.66
2023-03-29T22:49:37.093Z,10.55
2023-03-29T22:51:38.826Z,10.52
2023-03-29T22:53:40.672Z,10.52
2023-03-29T22:55:44.753Z,10.49
2023-03-29T22:57:46.320Z,10.44
2023-03-29T22:59:47.942Z,10.35
2023-03-29T23:01:49.902Z,10.21
2023-03-29T23:03:51.675Z,10.20
2023-03-29T23:05:55.148Z,10.23
2023-03-29T23:07:56.742Z,10.20
2023-03-29T23:09:58.458Z,10.18
2023-03-29T23:12:01.118Z,10.08
2023-03-29T23:14:04.065Z,10.14
2023-03-29T23:16:06.135Z,10.06
2023-03-29T23:18:07.830Z,10.08
2023-03-29T23:20:11.252Z,9.98
2023-03-29T23:22:13.562Z,10.01
2023-03-29T23:24:19.011Z,9.90
2023-03-29T23:26:20.923Z,9.96
2023-03-29T23:28:24.967Z,9.97
2023-03-29T23:30:26.842Z,9.88
2023-03-29T23:32:28.650Z,9.94
2023-03-29T23:34:30.318Z,9.92
2023-03-29T23:36:31.909Z,9.90
2023-03-29T23:38:35.198Z,10.06
2023-03-29T23:40:36.930Z,10.02
2023-03-29T23:42:39.187Z,10.35
2023-03-29T23:44:40.706Z,10.47
2023-03-29T23:46:42.365Z,10.45
2023-03-29T23:48:48.981Z,10.51
2023-03-29T23:50:51.190Z,10.55
2023-03-29T23:52:52.869Z,10.58
2023-03-29T23:54:54.520Z,10.61
2023-03-29T23:56:56.430Z,10.68
2023-03-29T23:58:57.999Z,10.73
